createdAt,value
2022-09-24T00:02:05.301Z,7.03
2022-09-24T00:04:33.228Z,7.00
2022-09-24T00:07:01.053Z,6.98
2022-09-24T00:09:28.886Z,6.96
2022-09-24T00:11:56.739Z,6.95
2022-09-24T00:14:24.566Z,6.92
2022-09-24T00:16:52.490Z,6.88
2022-09-24T00:19:20.266Z,6.85
2022-09-24T00:21:48.231Z,6.83
2022-09-24T00:24:36.225Z,6.83
2022-09-24T00:27:06.349Z,6.83
2022-09-24T00:29:35.901Z,6.83
2022-09-24T00:32:06.020Z,6.83
2022-09-24T00:34:34.370Z,6.82
2022-09-24T00:37:02.236Z,6.82
2022-09-24T00:39:30.209Z,6.82
2022-09-24T00:41:58.130Z,6.83
2022-09-24T00:44:41.196Z,6.82
2022-09-24T00:47:14.430Z,6.82
2022-09-24T00:49:42.607Z,6.82
2022-09-24T00:52:11.058Z,6.81
2022-09-24T00:54:39.730Z,6.78
2022-09-24T00:57:07.638Z,6.76
2022-09-24T00:59:36.508Z,6.75
2022-09-24T01:02:05.320Z,6.72
2022-09-24T01:04:33.333Z,6.69
2022-09-24T01:07:01.550Z,6.68
2022-09-24T01:09:29.849Z,6.66
2022-09-24T01:12:06.608Z,6.64
2022-09-24T01:14:43.795Z,6.65
2022-09-24T01:17:34.538Z,6.67
2022-09-24T01:20:29.997Z,6.68
2022-09-24T01:23:18.397Z,6.68
2022-09-24T01:25:54.736Z,6.65
2022-09-24T01:28:29.632Z,6.64
2022-09-24T01:31:24.604Z,6.63
2022-09-24T01:33:54.690Z,6.61
2022-09-24T01:36:24.541Z,6.61
2022-09-24T01:38:54.815Z,6.59
2022-09-24T01:41:22.886Z,6.59
2022-09-24T01:43:51.764Z,6.62
2022-09-24T01:46:21.317Z,6.59
2022-09-24T01:48:49.427Z,6.56
2022-09-24T01:51:29.303Z,6.53
2022-09-24T01:54:16.114Z,6.51
2022-09-24T01:56:57.196Z,6.50
2022-09-24T01:59:28.826Z,6.48
2022-09-24T02:02:03.971Z,6.46
2022-09-24T02:04:39.315Z,6.43
2022-09-24T02:07:13.555Z,6.42
2022-09-24T02:09:43.959Z,6.40
2022-09-24T02:12:17.395Z,6.38
2022-09-24T02:14:55.837Z,6.34
2022-09-24T02:17:27.842Z,6.31
2022-09-24T02:19:59.471Z,6.28
2022-09-24T02:22:29.509Z,6.24
2022-09-24T02:25:01.084Z,6.20
2022-09-24T02:27:29.136Z,6.17
2022-09-24T02:29:58.892Z,6.48
2022-09-24T02:32:31.182Z,6.43
2022-09-24T02:35:03.323Z,6.27
2022-09-24T02:37:36.031Z,6.15
2022-09-24T02:40:07.271Z,6.11
2022-09-24T02:42:35.649Z,6.12
2022-09-24T02:45:05.390Z,6.06
2022-09-24T02:47:33.359Z,6.05
2022-09-24T02:50:01.091Z,5.99
2022-09-24T02:52:29.236Z,5.96
2022-09-24T02:54:57.083Z,5.95
2022-09-24T02:57:24.847Z,5.93
2022-09-24T02:59:52.595Z,5.92
2022-09-24T03:02:20.634Z,5.93
2022-09-24T03:04:48.492Z,5.90
2022-09-24T03:07:16.234Z,5.86
2022-09-24T03:09:44.152Z,5.82
2022-09-24T03:12:12.812Z,5.79
2022-09-24T03:14:40.748Z,5.76
2022-09-24T03:17:08.717Z,5.75
2022-09-24T03:19:36.636Z,5.71
2022-09-24T03:22:04.405Z,5.66
2022-09-24T03:24:32.380Z,5.75
2022-09-24T03:27:00.062Z,7.01
2022-09-24T03:29:46.448Z,8.50
2022-09-24T03:32:14.478Z,9.84
2022-09-24T03:34:42.245Z,11.01
2022-09-24T03:37:10.131Z,11.33
2022-09-24T03:39:38.133Z,11.61
2022-09-24T03:42:05.902Z,11.89
2022-09-24T03:44:33.748Z,11.85
2022-09-24T03:47:01.780Z,10.81
2022-09-24T03:49:30.056Z,9.81
2022-09-24T03:51:57.785Z,9.05
2022-09-24T03:54:25.819Z,8.44
2022-09-24T03:56:53.522Z,7.93
2022-09-24T03:59:21.441Z,8.11
2022-09-24T04:01:49.446Z,10.12
2022-09-24T04:04:17.421Z,11.56
2022-09-24T04:06:45.195Z,12.14
2022-09-24T04:09:13.122Z,11.05
2022-09-24T04:11:40.987Z,9.89
2022-09-24T04:14:09.227Z,9.01
2022-09-24T04:16:37.340Z,8.29
2022-09-24T04:19:05.601Z,7.72
2022-09-24T04:21:33.754Z,7.86
2022-09-24T04:24:01.908Z,10.15
2022-09-24T04:26:29.685Z,11.72
2022-09-24T04:28:59.343Z,12.04
2022-09-24T04:31:27.428Z,10.94
2022-09-24T04:33:55.270Z,9.84
2022-09-24T04:36:23.037Z,9.03
2022-09-24T04:38:51.076Z,8.41
2022-09-24T04:41:18.774Z,7.92
2022-09-24T04:43:46.925Z,8.05
2022-09-24T04:46:14.788Z,10.32
2022-09-24T04:48:42.606Z,11.93
2022-09-24T04:51:10.719Z,12.19
2022-09-24T04:53:38.542Z,11.05
2022-09-24T04:56:12.325Z,9.99
2022-09-24T04:58:40.450Z,9.19
2022-09-24T05:01:08.231Z,8.61
2022-09-24T05:03:36.024Z,8.13
2022-09-24T05:06:03.990Z,8.21
2022-09-24T05:08:31.778Z,10.29
2022-09-24T05:11:02.899Z,11.94
2022-09-24T05:13:30.797Z,13.07
2022-09-24T05:16:00.983Z,13.69
2022-09-24T05:18:29.132Z,12.37
2022-09-24T05:20:57.122Z,11.08
2022-09-24T05:23:25.249Z,10.17
2022-09-24T05:26:11.632Z,9.48
2022-09-24T05:28:40.655Z,8.88
2022-09-24T05:31:09.456Z,8.97
2022-09-24T05:33:37.811Z,10.91
2022-09-24T05:36:05.895Z,12.51
2022-09-24T05:38:33.674Z,13.35
2022-09-24T05:41:01.891Z,13.23
2022-09-24T05:43:31.555Z,12.05
2022-09-24T05:45:59.305Z,10.97
2022-09-24T05:48:27.223Z,10.19
2022-09-24T05:50:55.558Z,9.58
2022-09-24T05:53:24.021Z,9.41
2022-09-24T05:55:52.087Z,10.48
2022-09-24T05:58:20.868Z,11.31
2022-09-24T06:00:48.656Z,11.78
2022-09-24T06:03:18.258Z,12.51
2022-09-24T06:05:50.446Z,13.33
2022-09-24T06:08:20.842Z,13.81
2022-09-24T06:10:49.395Z,13.52
2022-09-24T06:13:19.547Z,12.45
2022-09-24T06:15:47.556Z,11.49
2022-09-24T06:18:15.586Z,10.84
2022-09-24T06:20:44.614Z,10.78
2022-09-24T06:23:12.516Z,12.39
2022-09-24T06:25:40.646Z,14.46
2022-09-24T06:28:09.118Z,16.02
2022-09-24T06:30:38.791Z,16.36
2022-09-24T06:33:14.118Z,15.16
2022-09-24T06:35:43.920Z,14.01
2022-09-24T06:38:14.921Z,13.28
2022-09-24T06:40:45.639Z,12.74
2022-09-24T06:43:14.200Z,12.32
2022-09-24T06:45:44.854Z,12.35
2022-09-24T06:48:14.573Z,13.45
2022-09-24T06:50:45.597Z,14.75
2022-09-24T06:53:13.355Z,15.29
2022-09-24T06:55:42.408Z,15.13
2022-09-24T06:58:13.982Z,14.36
2022-09-24T07:00:43.471Z,13.65
2022-09-24T07:03:16.663Z,13.18
2022-09-24T07:05:44.642Z,13.13
2022-09-24T07:08:12.536Z,14.06
2022-09-24T07:10:52.773Z,14.52
2022-09-24T07:13:21.484Z,14.51
2022-09-24T07:15:50.881Z,14.53
2022-09-24T07:18:19.860Z,15.22
2022-09-24T07:20:56.015Z,15.60
2022-09-24T07:23:24.066Z,15.86
2022-09-24T07:25:56.121Z,15.20
2022-09-24T07:28:24.035Z,14.52
2022-09-24T07:31:00.043Z,14.08
2022-09-24T07:33:28.273Z,13.77
2022-09-24T07:35:55.983Z,13.56
2022-09-24T07:38:23.985Z,13.75
2022-09-24T07:40:53.110Z,15.60
2022-09-24T07:43:21.612Z,16.44
2022-09-24T07:45:49.733Z,15.88
2022-09-24T07:48:17.671Z,15.24
2022-09-24T07:50:45.440Z,14.76
2022-09-24T07:53:14.070Z,14.39
2022-09-24T07:55:41.986Z,14.16
2022-09-24T07:58:14.774Z,13.98
2022-09-24T08:00:42.951Z,13.87
2022-09-24T08:03:11.040Z,14.30
2022-09-24T08:05:45.898Z,16.61
2022-09-24T08:08:14.983Z,18.22
2022-09-24T08:10:43.634Z,17.46
2022-09-24T08:13:11.675Z,16.58
2022-09-24T08:15:40.127Z,16.00
2022-09-24T08:18:07.975Z,15.59
2022-09-24T08:20:38.198Z,15.28
2022-09-24T08:23:12.859Z,15.04
2022-09-24T08:25:40.858Z,14.82
2022-09-24T08:28:12.295Z,14.62
2022-09-24T08:30:40.526Z,14.43
2022-09-24T08:33:09.875Z,14.28
2022-09-24T08:35:41.513Z,14.14
2022-09-24T08:38:09.773Z,14.03
2022-09-24T08:40:46.844Z,13.94
2022-09-24T08:43:52.082Z,13.85
2022-09-24T08:47:06.797Z,13.79
2022-09-24T08:49:40.341Z,13.73
2022-09-24T08:52:31.377Z,13.69
2022-09-24T08:55:06.083Z,13.65
2022-09-24T08:57:58.480Z,13.64
2022-09-24T09:00:30.380Z,14.42
2022-09-24T09:03:19.844Z,16.98
2022-09-24T09:05:55.639Z,18.26
2022-09-24T09:11:32.078Z,16.48
2022-09-24T09:14:23.846Z,16.01
2022-09-24T09:17:03.077Z,15.67
2022-09-24T09:19:35.066Z,15.45
2022-09-24T09:22:14.937Z,15.25
2022-09-24T09:24:48.920Z,15.06
2022-09-24T09:27:18.840Z,14.90
2022-09-24T09:29:58.354Z,14.78
2022-09-24T09:32:35.329Z,14.66
2022-09-24T09:35:23.359Z,14.54
2022-09-24T09:38:19.639Z,14.48
2022-09-24T09:41:12.160Z,14.44
2022-09-24T09:43:41.940Z,14.40
2022-09-24T09:46:26.351Z,14.38
2022-09-24T09:49:01.016Z,14.35
2022-09-24T09:51:36.815Z,14.34
2022-09-24T09:54:05.609Z,14.32
2022-09-24T09:56:43.929Z,14.31
2022-09-24T09:59:12.018Z,14.32
2022-09-24T10:01:42.426Z,14.34
2022-09-24T10:04:29.704Z,14.35
2022-09-24T10:07:04.760Z,14.37
2022-09-24T10:09:33.012Z,14.38
2022-09-24T10:12:22.481Z,14.40
2022-09-24T10:15:00.941Z,14.43
2022-09-24T10:17:34.384Z,14.46
2022-09-24T10:20:07.631Z,14.51
2022-09-24T10:22:38.736Z,14.56
2022-09-24T10:25:06.990Z,14.62
2022-09-24T10:27:37.518Z,14.68
2022-09-24T10:30:33.463Z,14.74
2022-09-24T10:33:03.675Z,14.82
2022-09-24T10:35:38.848Z,14.89
2022-09-24T10:38:19.613Z,14.94
2022-09-24T10:40:48.239Z,14.98
2022-09-24T10:43:19.370Z,15.02
2022-09-24T10:46:16.231Z,15.06
2022-09-24T10:48:50.457Z,15.09
2022-09-24T10:51:28.917Z,15.13
2022-09-24T10:54:26.928Z,15.14
2022-09-24T10:56:57.513Z,15.14
2022-09-24T10:59:55.142Z,15.13
2022-09-24T11:02:39.985Z,15.13
2022-09-24T11:05:24.253Z,15.16
2022-09-24T11:08:17.732Z,15.17
2022-09-24T11:10:58.613Z,15.18
2022-09-24T11:13:57.434Z,15.19
2022-09-24T11:16:47.620Z,15.21
2022-09-24T11:19:24.286Z,15.21
2022-09-24T11:22:13.315Z,15.19
2022-09-24T11:24:53.784Z,15.18
2022-09-24T11:27:36.907Z,15.16
2022-09-24T11:30:32.761Z,15.15
2022-09-24T11:33:26.381Z,15.14
2022-09-24T11:36:08.667Z,15.14
2022-09-24T11:38:48.803Z,15.15
2022-09-24T11:41:21.610Z,15.15
2022-09-24T11:44:18.770Z,15.14
2022-09-24T11:47:09.310Z,15.13
2022-09-24T11:49:49.938Z,15.15
2022-09-24T11:52:35.861Z,15.14
2022-09-24T11:55:17.169Z,15.17
2022-09-24T11:57:54.707Z,15.17
2022-09-24T12:00:23.340Z,15.17
2022-09-24T12:02:57.545Z,15.16
2022-09-24T12:05:33.844Z,15.15
2022-09-24T12:08:28.525Z,15.15
2022-09-24T12:11:12.300Z,15.17
2022-09-24T12:13:52.501Z,15.18
2022-09-24T12:16:26.453Z,15.19
2022-09-24T12:19:06.334Z,15.21
2022-09-24T12:21:41.325Z,15.24
2022-09-24T12:24:59.524Z,15.26
2022-09-24T12:27:36.858Z,15.29
2022-09-24T12:30:47.639Z,15.29
2022-09-24T12:33:25.810Z,15.31
2022-09-24T12:36:32.079Z,15.31
2022-09-24T12:39:09.230Z,15.31
2022-09-24T12:41:40.417Z,15.33
2022-09-24T12:44:11.387Z,15.35
2022-09-24T12:46:52.289Z,15.35
2022-09-24T12:49:26.063Z,15.35
2022-09-24T12:51:57.831Z,15.36
2022-09-24T12:54:30.343Z,15.37
2022-09-24T12:57:40.529Z,15.38
2022-09-24T13:00:30.450Z,15.40
2022-09-24T13:02:59.642Z,15.42
2022-09-24T13:05:29.323Z,15.44
2022-09-24T13:08:04.407Z,15.46
2022-09-24T13:10:36.702Z,15.47
2022-09-24T13:13:37.094Z,15.49
2022-09-24T13:16:19.176Z,15.52
2022-09-24T13:18:55.477Z,15.54
2022-09-24T13:21:26.812Z,15.57
2022-09-24T13:23:58.887Z,15.60
2022-09-24T13:26:28.665Z,15.62
2022-09-24T13:29:04.960Z,15.64
2022-09-24T13:31:35.941Z,15.64
2022-09-24T13:34:09.737Z,15.65
2022-09-24T13:36:48.824Z,15.66
2022-09-24T13:39:34.142Z,15.67
2022-09-24T13:42:23.887Z,15.68
2022-09-24T13:44:56.518Z,15.67
2022-09-24T13:47:30.459Z,15.65
2022-09-24T13:50:09.533Z,15.62
2022-09-24T13:52:44.770Z,15.61
2022-09-24T13:55:21.267Z,15.61
2022-09-24T13:57:49.145Z,15.60
2022-09-24T14:00:32.567Z,15.60
2022-09-24T14:03:17.793Z,15.60
2022-09-24T14:05:45.808Z,15.62
2022-09-24T14:08:17.202Z,15.64
2022-09-24T14:10:48.714Z,15.66
2022-09-24T14:13:25.747Z,15.69
2022-09-24T14:16:00.154Z,15.72
2022-09-24T14:18:29.181Z,15.74
2022-09-24T14:21:07.679Z,15.76
2022-09-24T14:23:46.947Z,15.78
2022-09-24T14:26:31.278Z,15.80
2022-09-24T14:29:03.893Z,15.79
2022-09-24T14:31:31.731Z,15.79
2022-09-24T14:34:05.378Z,15.81
2022-09-24T14:36:36.036Z,15.82
2022-09-24T14:39:05.922Z,15.84
2022-09-24T14:41:36.497Z,15.85
2022-09-24T14:44:09.993Z,15.88
2022-09-24T14:46:48.966Z,15.92
2022-09-24T14:49:23.337Z,16.01
2022-09-24T14:51:57.343Z,16.45
2022-09-24T14:54:36.849Z,17.15
2022-09-24T14:57:19.892Z,17.72
2022-09-24T14:59:47.948Z,17.91
2022-09-24T15:02:29.958Z,17.82
2022-09-24T15:05:06.428Z,17.61
2022-09-24T15:07:35.656Z,17.38
2022-09-24T15:10:06.377Z,17.17
2022-09-24T15:12:36.739Z,17.01
2022-09-24T15:15:22.485Z,16.87
2022-09-24T15:17:50.434Z,16.73
2022-09-24T15:20:18.412Z,16.60
2022-09-24T15:22:47.419Z,16.46
2022-09-24T15:25:16.144Z,16.32
2022-09-24T15:27:45.110Z,16.18
2022-09-24T15:30:19.909Z,16.05
2022-09-24T15:32:51.271Z,15.92
2022-09-24T15:35:19.208Z,15.81
2022-09-24T15:37:48.921Z,15.69
2022-09-24T15:40:23.233Z,15.57
2022-09-24T15:42:52.328Z,15.45
2022-09-24T15:45:22.902Z,15.33
2022-09-24T15:47:52.572Z,15.20
2022-09-24T15:50:22.734Z,15.08
2022-09-24T15:52:57.107Z,14.97
2022-09-24T15:55:25.369Z,14.84
2022-09-24T15:57:54.036Z,15.10
2022-09-24T16:00:24.276Z,16.80
2022-09-24T16:02:55.421Z,18.38
2022-09-24T16:05:25.155Z,18.90
2022-09-24T16:07:53.023Z,18.07
2022-09-24T16:10:20.874Z,17.27
2022-09-24T16:12:48.785Z,16.69
2022-09-24T16:15:17.782Z,16.27
2022-09-24T16:17:49.978Z,15.92
2022-09-24T16:20:18.122Z,15.61
2022-09-24T16:22:45.925Z,15.34
2022-09-24T16:25:13.691Z,15.09
2022-09-24T16:27:41.711Z,14.86
2022-09-24T16:30:10.299Z,15.06
2022-09-24T16:32:38.381Z,16.65
2022-09-24T16:35:06.775Z,17.80
2022-09-24T16:37:34.598Z,17.91
2022-09-24T16:40:02.736Z,17.08
2022-09-24T16:42:31.163Z,16.32
2022-09-24T16:44:58.901Z,15.76
2022-09-24T16:47:26.758Z,15.34
2022-09-24T16:49:54.725Z,14.97
2022-09-24T16:52:22.540Z,14.67
2022-09-24T16:54:50.425Z,14.73
2022-09-24T16:57:18.458Z,16.11
2022-09-24T16:59:46.235Z,17.05
2022-09-24T17:02:14.802Z,17.44
2022-09-24T17:04:42.753Z,17.38
2022-09-24T17:07:12.358Z,16.62
2022-09-24T17:09:58.994Z,15.85
2022-09-24T17:12:27.499Z,15.21
2022-09-24T17:14:55.702Z,14.76
2022-09-24T17:17:24.190Z,14.37
2022-09-24T17:19:52.083Z,14.03
2022-09-24T17:22:20.080Z,14.11
2022-09-24T17:24:48.798Z,15.44
2022-09-24T17:27:16.848Z,16.81
2022-09-24T17:29:44.752Z,17.62
2022-09-24T17:32:12.722Z,17.52
2022-09-24T17:34:45.522Z,16.48
2022-09-24T17:37:13.826Z,15.57
2022-09-24T17:39:42.088Z,14.93
2022-09-24T17:42:09.871Z,14.44
2022-09-24T17:44:38.103Z,14.02
2022-09-24T17:47:06.899Z,13.66
2022-09-24T17:49:34.741Z,13.58
2022-09-24T17:52:03.852Z,14.04
2022-09-24T17:54:32.019Z,14.04
2022-09-24T17:57:00.511Z,14.80
2022-09-24T17:59:28.410Z,15.64
2022-09-24T18:01:56.521Z,15.73
2022-09-24T18:04:27.071Z,16.04
2022-09-24T18:06:54.788Z,16.03
2022-09-24T18:09:22.825Z,15.21
2022-09-24T18:11:52.745Z,14.43
2022-09-24T18:14:23.246Z,13.82
2022-09-24T18:16:51.724Z,13.34
2022-09-24T18:19:19.862Z,12.93
2022-09-24T18:21:49.378Z,12.93
2022-09-24T18:24:17.603Z,13.95
2022-09-24T18:26:49.486Z,14.42
2022-09-24T18:29:21.387Z,14.69
2022-09-24T18:31:51.656Z,14.60
2022-09-24T18:34:19.990Z,14.44
2022-09-24T18:36:47.929Z,14.33
2022-09-24T18:39:21.852Z,14.04
2022-09-24T18:41:53.256Z,14.25
2022-09-24T18:44:21.760Z,15.27
2022-09-24T18:46:49.988Z,15.65
2022-09-24T18:49:19.631Z,14.78
2022-09-24T18:51:49.367Z,13.89
2022-09-24T18:54:18.416Z,13.22
2022-09-24T18:56:46.698Z,12.71
2022-09-24T18:59:19.835Z,12.29
2022-09-24T19:01:51.069Z,12.18
2022-09-24T19:04:19.350Z,13.43
2022-09-24T19:06:48.454Z,14.36
2022-09-24T19:09:17.697Z,14.57
2022-09-24T19:11:46.823Z,14.30
2022-09-24T19:14:18.170Z,13.48
2022-09-24T19:16:47.282Z,12.75
2022-09-24T19:19:16.314Z,12.20
2022-09-24T19:21:44.593Z,11.75
2022-09-24T19:24:13.277Z,11.62
2022-09-24T19:26:41.872Z,12.07
2022-09-24T19:29:10.676Z,12.02
2022-09-24T19:31:42.742Z,12.01
2022-09-24T19:34:13.022Z,12.18
2022-09-24T19:36:43.427Z,11.90
2022-09-24T19:39:15.847Z,11.78
2022-09-24T19:41:45.029Z,11.65
2022-09-24T19:44:15.888Z,11.43
2022-09-24T19:46:44.793Z,11.14
2022-09-24T19:49:13.415Z,10.93
2022-09-24T19:51:41.476Z,10.89
2022-09-24T19:54:10.610Z,11.00
2022-09-24T19:56:38.880Z,10.88
2022-09-24T19:59:08.041Z,10.63
2022-09-24T20:01:36.200Z,10.45
2022-09-24T20:04:06.470Z,10.33
2022-09-24T20:06:37.304Z,10.23
2022-09-24T20:09:06.041Z,10.17
2022-09-24T20:11:33.992Z,10.09
2022-09-24T20:14:02.647Z,10.04
2022-09-24T20:16:33.582Z,10.12
2022-09-24T20:19:02.673Z,10.56
2022-09-24T20:21:35.281Z,10.48
2022-09-24T20:24:05.313Z,10.27
2022-09-24T20:26:53.389Z,10.16
2022-09-24T20:29:23.066Z,10.03
2022-09-24T20:31:53.114Z,9.88
2022-09-24T20:34:25.084Z,9.80
2022-09-24T20:36:53.075Z,9.81
2022-09-24T20:39:21.340Z,9.74
2022-09-24T20:41:49.628Z,9.76
2022-09-24T20:44:18.100Z,9.72
2022-09-24T20:46:45.968Z,9.86
2022-09-24T20:49:23.210Z,10.64
2022-09-24T20:51:56.935Z,10.81
2022-09-24T20:54:27.070Z,10.85
2022-09-24T20:56:54.989Z,11.08
2022-09-24T20:59:23.109Z,10.94
2022-09-24T21:01:51.313Z,10.78
2022-09-24T21:04:21.357Z,10.69
2022-09-24T21:06:49.870Z,10.50
2022-09-24T21:09:18.472Z,10.40
2022-09-24T21:11:46.715Z,10.40
2022-09-24T21:14:14.826Z,10.22
2022-09-24T21:16:42.935Z,10.08
2022-09-24T21:19:12.513Z,9.95
2022-09-24T21:21:40.550Z,9.85
2022-09-24T21:24:12.786Z,9.72
2022-09-24T21:26:41.443Z,9.61
2022-09-24T21:29:17.762Z,9.73
2022-09-24T21:31:47.283Z,10.34
2022-09-24T21:34:20.883Z,10.31
2022-09-24T21:36:49.491Z,10.09
2022-09-24T21:39:20.096Z,10.07
2022-09-24T21:41:50.183Z,10.70
2022-09-24T21:44:19.380Z,11.13
2022-09-24T21:46:48.286Z,11.69
2022-09-24T21:49:17.395Z,12.07
2022-09-24T21:51:46.056Z,12.01
2022-09-24T21:54:18.567Z,11.67
2022-09-24T21:56:47.815Z,11.38
2022-09-24T21:59:35.748Z,11.12
2022-09-24T22:02:04.627Z,10.97
2022-09-24T22:04:33.501Z,12.47
2022-09-24T22:07:02.598Z,14.10
2022-09-24T22:09:31.975Z,14.70
2022-09-24T22:12:01.472Z,14.75
2022-09-24T22:14:29.557Z,13.64
2022-09-24T22:16:57.631Z,12.60
2022-09-24T22:19:25.448Z,11.81
2022-09-24T22:21:53.178Z,11.22
2022-09-24T22:24:21.244Z,10.73
2022-09-24T22:26:49.086Z,10.87
2022-09-24T22:29:17.051Z,12.56
2022-09-24T22:31:45.120Z,13.59
2022-09-24T22:34:33.924Z,14.07
2022-09-24T22:37:05.927Z,13.77
2022-09-24T22:39:35.052Z,12.67
2022-09-24T22:42:03.115Z,11.75
2022-09-24T22:44:31.069Z,11.07
2022-09-24T22:46:58.852Z,10.53
2022-09-24T22:49:26.892Z,10.41
2022-09-24T22:51:54.765Z,11.92
2022-09-24T22:54:24.430Z,13.32
2022-09-24T22:56:52.412Z,13.85
2022-09-24T22:59:20.215Z,13.67
2022-09-24T23:01:48.057Z,12.61
2022-09-24T23:04:16.274Z,11.63
2022-09-24T23:06:47.107Z,10.91
2022-09-24T23:09:15.114Z,10.32
2022-09-24T23:11:43.133Z,10.16
2022-09-24T23:14:13.943Z,11.07
2022-09-24T23:16:43.337Z,11.92
2022-09-24T23:19:16.936Z,12.49
2022-09-24T23:21:45.853Z,12.83
2022-09-24T23:24:22.085Z,13.00
2022-09-24T23:26:51.192Z,12.77
2022-09-24T23:29:19.297Z,11.90
2022-09-24T23:31:47.194Z,11.07
2022-09-24T23:34:15.177Z,10.45
2022-09-24T23:36:45.313Z,10.12
2022-09-24T23:39:13.803Z,10.53
2022-09-24T23:41:41.928Z,10.97
2022-09-24T23:44:10.994Z,11.19
2022-09-24T23:46:41.461Z,11.21
2022-09-24T23:49:09.942Z,11.31
2022-09-24T23:51:37.922Z,11.40
2022-09-24T23:54:06.384Z,11.51
2022-09-24T23:56:34.310Z,11.42
2022-09-24T23:59:02.271Z,11.75
